sensor_id;sensor_type;location;lat;lon;timestamp;P1;durP1;ratioP1;P2;durP2;ratioP2
16272;SDS011;8244;50.044;9.006;2023-06-26T00:04:56;9.90;;;6.10;;
16272;SDS011;8244;50.044;9.006;2023-06-26T00:09:58;9.07;;;6.00;;
16272;SDS011;8244;50.044;9.006;2023-06-26T00:14:59;7.22;;;5.60;;
16272;SDS011;8244;50.044;9.006;2023-06-26T00:20:03;7.55;;;5.90;;
16272;SDS011;8244;50.044;9.006;2023-06-26T00:25:07;8.35;;;5.65;;
16272;SDS011;8244;50.044;9.006;2023-06-26T00:30:09;8.20;;;6.22;;
16272;SDS011;8244;50.044;9.006;2023-06-26T00:35:12;8.32;;;5.68;;
16272;SDS011;8244;50.044;9.006;2023-06-26T00:40:14;8.88;;;6.30;;
16272;SDS011;8244;50.044;9.006;2023-06-26T00:45:16;10.15;;;6.10;;
16272;SDS011;8244;50.044;9.006;2023-06-26T00:50:19;7.43;;;5.65;;
16272;SDS011;8244;50.044;9.006;2023-06-26T00:55:21;9.07;;;6.13;;
16272;SDS011;8244;50.044;9.006;2023-06-26T01:00:23;8.75;;;5.68;;
16272;SDS011;8244;50.044;9.006;2023-06-26T01:05:26;7.32;;;5.63;;
16272;SDS011;8244;50.044;9.006;2023-06-26T01:10:28;7.90;;;5.75;;
16272;SDS011;8244;50.044;9.006;2023-06-26T01:15:30;7.60;;;5.80;;
16272;SDS011;8244;50.044;9.006;2023-06-26T01:20:34;9.82;;;5.93;;
16272;SDS011;8244;50.044;9.006;2023-06-26T01:25:39;8.48;;;6.10;;
16272;SDS011;8244;50.044;9.006;2023-06-26T01:30:46;8.02;;;5.82;;
16272;SDS011;8244;50.044;9.006;2023-06-26T01:35:49;7.78;;;5.30;;
16272;SDS011;8244;50.044;9.006;2023-06-26T01:40:51;9.07;;;7.10;;
16272;SDS011;8244;50.044;9.006;2023-06-26T01:45:55;9.55;;;6.38;;
16272;SDS011;8244;50.044;9.006;2023-06-26T01:51:03;10.27;;;6.30;;
16272;SDS011;8244;50.044;9.006;2023-06-26T01:56:08;8.43;;;6.40;;
16272;SDS011;8244;50.044;9.006;2023-06-26T02:01:15;9.23;;;6.28;;
16272;SDS011;8244;50.044;9.006;2023-06-26T02:06:17;9.48;;;6.05;;
16272;SDS011;8244;50.044;9.006;2023-06-26T02:11:19;9.40;;;6.25;;
16272;SDS011;8244;50.044;9.006;2023-06-26T02:16:22;8.68;;;6.25;;
16272;SDS011;8244;50.044;9.006;2023-06-26T02:21:24;9.23;;;6.53;;
16272;SDS011;8244;50.044;9.006;2023-06-26T02:26:26;9.38;;;5.97;;
16272;SDS011;8244;50.044;9.006;2023-06-26T02:31:29;12.10;;;6.68;;
16272;SDS011;8244;50.044;9.006;2023-06-26T02:36:31;9.27;;;6.90;;
16272;SDS011;8244;50.044;9.006;2023-06-26T02:41:32;10.25;;;7.03;;
16272;SDS011;8244;50.044;9.006;2023-06-26T02:46:36;9.07;;;6.70;;
16272;SDS011;8244;50.044;9.006;2023-06-26T02:51:37;10.90;;;7.18;;
16272;SDS011;8244;50.044;9.006;2023-06-26T02:56:39;10.10;;;7.05;;
16272;SDS011;8244;50.044;9.006;2023-06-26T03:01:42;9.20;;;6.85;;
16272;SDS011;8244;50.044;9.006;2023-06-26T03:06:44;9.05;;;6.63;;
16272;SDS011;8244;50.044;9.006;2023-06-26T03:11:46;11.60;;;8.00;;
16272;SDS011;8244;50.044;9.006;2023-06-26T03:16:49;11.40;;;7.47;;
16272;SDS011;8244;50.044;9.006;2023-06-26T03:21:52;11.32;;;7.57;;
16272;SDS011;8244;50.044;9.006;2023-06-26T03:26:55;10.80;;;7.88;;
16272;SDS011;8244;50.044;9.006;2023-06-26T03:31:58;10.48;;;7.90;;
16272;SDS011;8244;50.044;9.006;2023-06-26T03:37:00;10.68;;;8.07;;
16272;SDS011;8244;50.044;9.006;2023-06-26T03:42:05;11.82;;;8.20;;
16272;SDS011;8244;50.044;9.006;2023-06-26T03:47:09;10.30;;;7.80;;
16272;SDS011;8244;50.044;9.006;2023-06-26T03:52:11;10.18;;;7.50;;
16272;SDS011;8244;50.044;9.006;2023-06-26T03:57:12;12.70;;;7.60;;
16272;SDS011;8244;50.044;9.006;2023-06-26T04:02:16;10.10;;;7.40;;
16272;SDS011;8244;50.044;9.006;2023-06-26T04:07:17;9.93;;;6.75;;
16272;SDS011;8244;50.044;9.006;2023-06-26T04:12:19;10.65;;;7.32;;
16272;SDS011;8244;50.044;9.006;2023-06-26T04:17:22;8.73;;;6.55;;
16272;SDS011;8244;50.044;9.006;2023-06-26T04:22:24;10.48;;;7.47;;
16272;SDS011;8244;50.044;9.006;2023-06-26T04:27:26;12.10;;;6.75;;
16272;SDS011;8244;50.044;9.006;2023-06-26T04:32:29;11.20;;;7.85;;
16272;SDS011;8244;50.044;9.006;2023-06-26T04:37:31;9.82;;;6.38;;
16272;SDS011;8244;50.044;9.006;2023-06-26T04:42:32;12.68;;;6.38;;
16272;SDS011;8244;50.044;9.006;2023-06-26T04:47:35;11.40;;;6.50;;
16272;SDS011;8244;50.044;9.006;2023-06-26T04:52:37;12.90;;;7.20;;
16272;SDS011;8244;50.044;9.006;2023-06-26T04:57:39;10.02;;;7.38;;
16272;SDS011;8244;50.044;9.006;2023-06-26T05:02:42;10.85;;;6.60;;
16272;SDS011;8244;50.044;9.006;2023-06-26T05:07:43;10.07;;;5.97;;
16272;SDS011;8244;50.044;9.006;2023-06-26T05:12:45;15.00;;;6.50;;
16272;SDS011;8244;50.044;9.006;2023-06-26T05:17:48;12.25;;;6.35;;
16272;SDS011;8244;50.044;9.006;2023-06-26T05:22:50;10.20;;;6.00;;
16272;SDS011;8244;50.044;9.006;2023-06-26T05:27:51;8.60;;;5.88;;
16272;SDS011;8244;50.044;9.006;2023-06-26T05:32:55;10.68;;;6.03;;
16272;SDS011;8244;50.044;9.006;2023-06-26T05:38:00;10.32;;;6.93;;
16272;SDS011;8244;50.044;9.006;2023-06-26T05:43:03;9.35;;;6.18;;
16272;SDS011;8244;50.044;9.006;2023-06-26T05:48:06;9.82;;;6.25;;
16272;SDS011;8244;50.044;9.006;2023-06-26T05:53:08;11.88;;;5.93;;
16272;SDS011;8244;50.044;9.006;2023-06-26T05:58:11;10.68;;;6.35;;
16272;SDS011;8244;50.044;9.006;2023-06-26T06:03:14;9.93;;;5.97;;
16272;SDS011;8244;50.044;9.006;2023-06-26T06:08:16;10.70;;;5.80;;
16272;SDS011;8244;50.044;9.006;2023-06-26T06:13:18;12.05;;;5.53;;
16272;SDS011;8244;50.044;9.006;2023-06-26T06:18:21;9.85;;;5.68;;
16272;SDS011;8244;50.044;9.006;2023-06-26T06:23:22;10.15;;;5.45;;
16272;SDS011;8244;50.044;9.006;2023-06-26T06:28:24;9.95;;;5.70;;
16272;SDS011;8244;50.044;9.006;2023-06-26T06:33:27;10.45;;;5.40;;
16272;SDS011;8244;50.044;9.006;2023-06-26T06:38:29;8.73;;;5.45;;
16272;SDS011;8244;50.044;9.006;2023-06-26T06:43:31;9.20;;;4.82;;
16272;SDS011;8244;50.044;9.006;2023-06-26T06:48:34;9.18;;;5.20;;
16272;SDS011;8244;50.044;9.006;2023-06-26T06:53:36;10.05;;;4.85;;
16272;SDS011;8244;50.044;9.006;2023-06-26T06:58:37;10.05;;;5.03;;
16272;SDS011;8244;50.044;9.006;2023-06-26T07:03:43;6.72;;;4.90;;
16272;SDS011;8244;50.044;9.006;2023-06-26T07:08:45;7.72;;;4.80;;
16272;SDS011;8244;50.044;9.006;2023-06-26T07:13:47;9.45;;;5.25;;
16272;SDS011;8244;50.044;9.006;2023-06-26T07:18:50;6.68;;;4.72;;
16272;SDS011;8244;50.044;9.006;2023-06-26T07:23:52;11.35;;;5.53;;
16272;SDS011;8244;50.044;9.006;2023-06-26T07:28:53;11.88;;;5.00;;
16272;SDS011;8244;50.044;9.006;2023-06-26T07:33:58;8.75;;;5.22;;
16272;SDS011;8244;50.044;9.006;2023-06-26T07:38:59;9.40;;;4.95;;
16272;SDS011;8244;50.044;9.006;2023-06-26T07:44:01;9.63;;;4.63;;
16272;SDS011;8244;50.044;9.006;2023-06-26T07:49:04;13.18;;;5.20;;
16272;SDS011;8244;50.044;9.006;2023-06-26T07:54:06;8.48;;;5.32;;
16272;SDS011;8244;50.044;9.006;2023-06-26T07:59:08;6.93;;;5.18;;
16272;SDS011;8244;50.044;9.006;2023-06-26T08:04:11;6.80;;;5.05;;
16272;SDS011;8244;50.044;9.006;2023-06-26T08:09:12;6.65;;;5.00;;
16272;SDS011;8244;50.044;9.006;2023-06-26T08:14:14;8.27;;;4.68;;
16272;SDS011;8244;50.044;9.006;2023-06-26T08:19:18;5.93;;;4.65;;
16272;SDS011;8244;50.044;9.006;2023-06-26T08:24:20;8.07;;;4.93;;
16272;SDS011;8244;50.044;9.006;2023-06-26T08:29:21;5.88;;;4.80;;
16272;SDS011;8244;50.044;9.006;2023-06-26T08:34:24;6.65;;;5.20;;
16272;SDS011;8244;50.044;9.006;2023-06-26T08:39:26;6.22;;;5.28;;
16272;SDS011;8244;50.044;9.006;2023-06-26T08:44:28;7.10;;;5.10;;
16272;SDS011;8244;50.044;9.006;2023-06-26T08:49:33;9.15;;;5.20;;
16272;SDS011;8244;50.044;9.006;2023-06-26T08:54:40;7.60;;;5.55;;
16272;SDS011;8244;50.044;9.006;2023-06-26T08:59:47;7.80;;;5.32;;
16272;SDS011;8244;50.044;9.006;2023-06-26T09:04:50;7.78;;;4.80;;
16272;SDS011;8244;50.044;9.006;2023-06-26T09:09:52;7.78;;;5.20;;
16272;SDS011;8244;50.044;9.006;2023-06-26T09:14:54;6.82;;;4.85;;
16272;SDS011;8244;50.044;9.006;2023-06-26T09:19:58;5.90;;;4.60;;
16272;SDS011;8244;50.044;9.006;2023-06-26T09:25:00;7.97;;;4.97;;
16272;SDS011;8244;50.044;9.006;2023-06-26T09:30:02;9.27;;;5.35;;
16272;SDS011;8244;50.044;9.006;2023-06-26T09:35:07;7.80;;;4.90;;
16272;SDS011;8244;50.044;9.006;2023-06-26T09:40:09;7.75;;;4.97;;
16272;SDS011;8244;50.044;9.006;2023-06-26T09:45:17;7.25;;;4.93;;
16272;SDS011;8244;50.044;9.006;2023-06-26T09:50:22;7.05;;;4.80;;
16272;SDS011;8244;50.044;9.006;2023-06-26T09:55:26;5.03;;;4.53;;
16272;SDS011;8244;50.044;9.006;2023-06-26T10:00:27;7.78;;;5.30;;
16272;SDS011;8244;50.044;9.006;2023-06-26T10:05:30;6.20;;;5.25;;
16272;SDS011;8244;50.044;9.006;2023-06-26T10:10:33;5.80;;;4.80;;
16272;SDS011;8244;50.044;9.006;2023-06-26T10:15:37;8.20;;;4.65;;
16272;SDS011;8244;50.044;9.006;2023-06-26T10:20:44;6.30;;;4.60;;
16272;SDS011;8244;50.044;9.006;2023-06-26T10:25:51;7.40;;;5.05;;
16272;SDS011;8244;50.044;9.006;2023-06-26T10:30:56;6.18;;;4.90;;
16272;SDS011;8244;50.044;9.006;2023-06-26T10:36:13;8.32;;;5.47;;
16272;SDS011;8244;50.044;9.006;2023-06-26T10:41:17;8.05;;;5.50;;
16272;SDS011;8244;50.044;9.006;2023-06-26T10:46:21;10.70;;;5.30;;
16272;SDS011;8244;50.044;9.006;2023-06-26T10:51:26;8.35;;;5.28;;
16272;SDS011;8244;50.044;9.006;2023-06-26T11:01:53;10.07;;;4.78;;
16272;SDS011;8244;50.044;9.006;2023-06-26T11:06:59;7.03;;;4.70;;
16272;SDS011;8244;50.044;9.006;2023-06-26T11:12:26;7.53;;;4.70;;
16272;SDS011;8244;50.044;9.006;2023-06-26T11:17:35;5.53;;;4.35;;
16272;SDS011;8244;50.044;9.006;2023-06-26T11:22:39;11.35;;;4.90;;
16272;SDS011;8244;50.044;9.006;2023-06-26T11:27:43;6.13;;;4.47;;
16272;SDS011;8244;50.044;9.006;2023-06-26T11:32:45;9.57;;;4.75;;
16272;SDS011;8244;50.044;9.006;2023-06-26T11:37:48;5.05;;;4.50;;
16272;SDS011;8244;50.044;9.006;2023-06-26T11:42:50;9.18;;;4.72;;
16272;SDS011;8244;50.044;9.006;2023-06-26T11:47:51;6.70;;;4.30;;
16272;SDS011;8244;50.044;9.006;2023-06-26T11:52:57;5.00;;;4.10;;
16272;SDS011;8244;50.044;9.006;2023-06-26T11:57:59;8.02;;;4.35;;
16272;SDS011;8244;50.044;9.006;2023-06-26T12:03:01;9.02;;;4.55;;
16272;SDS011;8244;50.044;9.006;2023-06-26T12:08:05;5.53;;;4.03;;
16272;SDS011;8244;50.044;9.006;2023-06-26T12:13:07;7.43;;;4.40;;
16272;SDS011;8244;50.044;9.006;2023-06-26T12:18:09;8.90;;;4.70;;
16272;SDS011;8244;50.044;9.006;2023-06-26T12:23:13;6.90;;;4.88;;
16272;SDS011;8244;50.044;9.006;2023-06-26T12:28:15;8.63;;;4.80;;
16272;SDS011;8244;50.044;9.006;2023-06-26T12:33:18;7.32;;;4.80;;
16272;SDS011;8244;50.044;9.006;2023-06-26T12:38:21;8.82;;;4.97;;
16272;SDS011;8244;50.044;9.006;2023-06-26T12:43:22;6.20;;;4.60;;
16272;SDS011;8244;50.044;9.006;2023-06-26T12:48:35;8.73;;;5.35;;
16272;SDS011;8244;50.044;9.006;2023-06-26T12:53:39;6.57;;;4.85;;
16272;SDS011;8244;50.044;9.006;2023-06-26T12:58:41;6.03;;;4.78;;
16272;SDS011;8244;50.044;9.006;2023-06-26T13:03:43;8.23;;;5.03;;
16272;SDS011;8244;50.044;9.006;2023-06-26T13:08:46;5.93;;;4.88;;
16272;SDS011;8244;50.044;9.006;2023-06-26T13:13:49;9.18;;;4.55;;
16272;SDS011;8244;50.044;9.006;2023-06-26T13:18:51;8.73;;;4.50;;
16272;SDS011;8244;50.044;9.006;2023-06-26T13:23:54;6.18;;;4.20;;
16272;SDS011;8244;50.044;9.006;2023-06-26T13:28:57;9.45;;;4.78;;
16272;SDS011;8244;50.044;9.006;2023-06-26T13:33:59;8.65;;;4.40;;
16272;SDS011;8244;50.044;9.006;2023-06-26T13:39:03;9.18;;;4.80;;
16272;SDS011;8244;50.044;9.006;2023-06-26T13:44:05;8.45;;;4.40;;
16272;SDS011;8244;50.044;9.006;2023-06-26T13:49:06;9.18;;;4.53;;
16272;SDS011;8244;50.044;9.006;2023-06-26T13:54:09;9.52;;;4.72;;
16272;SDS011;8244;50.044;9.006;2023-06-26T13:59:11;10.43;;;4.70;;
16272;SDS011;8244;50.044;9.006;2023-06-26T14:04:13;7.97;;;4.60;;
16272;SDS011;8244;50.044;9.006;2023-06-26T14:09:17;7.55;;;4.40;;
16272;SDS011;8244;50.044;9.006;2023-06-26T14:14:19;8.10;;;4.43;;
16272;SDS011;8244;50.044;9.006;2023-06-26T14:19:21;6.65;;;3.88;;
16272;SDS011;8244;50.044;9.006;2023-06-26T14:24:24;6.15;;;4.00;;
16272;SDS011;8244;50.044;9.006;2023-06-26T14:29:25;8.30;;;3.78;;
16272;SDS011;8244;50.044;9.006;2023-06-26T14:34:27;7.95;;;3.25;;
16272;SDS011;8244;50.044;9.006;2023-06-26T14:39:31;9.10;;;3.70;;
16272;SDS011;8244;50.044;9.006;2023-06-26T14:44:32;8.80;;;3.40;;
16272;SDS011;8244;50.044;9.006;2023-06-26T14:49:34;7.60;;;3.15;;
16272;SDS011;8244;50.044;9.006;2023-06-26T14:54:37;9.00;;;3.10;;
16272;SDS011;8244;50.044;9.006;2023-06-26T14:59:39;7.10;;;3.10;;
16272;SDS011;8244;50.044;9.006;2023-06-26T15:04:41;5.10;;;2.90;;
16272;SDS011;8244;50.044;9.006;2023-06-26T15:09:44;6.15;;;2.80;;
16272;SDS011;8244;50.044;9.006;2023-06-26T15:14:46;8.98;;;2.55;;
16272;SDS011;8244;50.044;9.006;2023-06-26T15:19:47;6.05;;;2.50;;
16272;SDS011;8244;50.044;9.006;2023-06-26T15:24:50;7.40;;;2.40;;
16272;SDS011;8244;50.044;9.006;2023-06-26T15:29:52;9.32;;;2.55;;
16272;SDS011;8244;50.044;9.006;2023-06-26T15:34:54;3.42;;;2.10;;
16272;SDS011;8244;50.044;9.006;2023-06-26T15:39:57;6.18;;;2.00;;
16272;SDS011;8244;50.044;9.006;2023-06-26T15:44:58;7.60;;;2.55;;
16272;SDS011;8244;50.044;9.006;2023-06-26T15:50:00;4.97;;;2.15;;
16272;SDS011;8244;50.044;9.006;2023-06-26T15:55:03;4.50;;;2.10;;
16272;SDS011;8244;50.044;9.006;2023-06-26T16:00:06;9.65;;;2.20;;
16272;SDS011;8244;50.044;9.006;2023-06-26T16:05:09;7.00;;;2.22;;
16272;SDS011;8244;50.044;9.006;2023-06-26T16:10:12;5.18;;;1.98;;
16272;SDS011;8244;50.044;9.006;2023-06-26T16:15:14;7.78;;;2.22;;
16272;SDS011;8244;50.044;9.006;2023-06-26T16:20:16;5.50;;;2.40;;
16272;SDS011;8244;50.044;9.006;2023-06-26T16:25:19;6.95;;;1.90;;
16272;SDS011;8244;50.044;9.006;2023-06-26T16:30:21;7.47;;;2.20;;
16272;SDS011;8244;50.044;9.006;2023-06-26T16:35:23;5.53;;;1.98;;
16272;SDS011;8244;50.044;9.006;2023-06-26T16:40:26;7.78;;;2.13;;
16272;SDS011;8244;50.044;9.006;2023-06-26T16:45:28;7.30;;;2.30;;
16272;SDS011;8244;50.044;9.006;2023-06-26T16:50:30;4.97;;;1.83;;
16272;SDS011;8244;50.044;9.006;2023-06-26T16:55:33;5.53;;;1.92;;
16272;SDS011;8244;50.044;9.006;2023-06-26T17:00:35;8.15;;;2.10;;
16272;SDS011;8244;50.044;9.006;2023-06-26T17:05:38;4.55;;;2.03;;
16272;SDS011;8244;50.044;9.006;2023-06-26T17:10:41;5.30;;;2.00;;
16272;SDS011;8244;50.044;9.006;2023-06-26T17:15:43;5.47;;;2.10;;
16272;SDS011;8244;50.044;9.006;2023-06-26T17:20:46;6.47;;;2.30;;
16272;SDS011;8244;50.044;9.006;2023-06-26T17:25:49;6.88;;;2.08;;
16272;SDS011;8244;50.044;9.006;2023-06-26T17:30:51;5.07;;;2.00;;
16272;SDS011;8244;50.044;9.006;2023-06-26T17:35:53;5.68;;;2.10;;
16272;SDS011;8244;50.044;9.006;2023-06-26T17:40:56;4.50;;;2.10;;
16272;SDS011;8244;50.044;9.006;2023-06-26T17:45:57;8.77;;;1.90;;
16272;SDS011;8244;50.044;9.006;2023-06-26T17:50:59;11.02;;;2.30;;
16272;SDS011;8244;50.044;9.006;2023-06-26T17:56:04;5.70;;;1.90;;
16272;SDS011;8244;50.044;9.006;2023-06-26T18:01:05;7.25;;;2.20;;
16272;SDS011;8244;50.044;9.006;2023-06-26T18:06:07;6.22;;;1.92;;
16272;SDS011;8244;50.044;9.006;2023-06-26T18:11:10;7.15;;;1.98;;
16272;SDS011;8244;50.044;9.006;2023-06-26T18:16:12;6.53;;;2.20;;
16272;SDS011;8244;50.044;9.006;2023-06-26T18:21:13;6.95;;;2.40;;
16272;SDS011;8244;50.044;9.006;2023-06-26T18:26:17;6.28;;;1.98;;
16272;SDS011;8244;50.044;9.006;2023-06-26T18:31:19;4.53;;;2.28;;
16272;SDS011;8244;50.044;9.006;2023-06-26T18:36:21;6.55;;;1.77;;
16272;SDS011;8244;50.044;9.006;2023-06-26T18:41:24;6.10;;;1.90;;
16272;SDS011;8244;50.044;9.006;2023-06-26T18:46:26;5.70;;;1.90;;
16272;SDS011;8244;50.044;9.006;2023-06-26T18:51:28;4.97;;;1.77;;
16272;SDS011;8244;50.044;9.006;2023-06-26T18:56:31;4.30;;;1.88;;
16272;SDS011;8244;50.044;9.006;2023-06-26T19:01:34;7.15;;;2.03;;
16272;SDS011;8244;50.044;9.006;2023-06-26T19:06:35;4.05;;;2.00;;
16272;SDS011;8244;50.044;9.006;2023-06-26T19:11:38;7.88;;;2.40;;
16272;SDS011;8244;50.044;9.006;2023-06-26T19:16:40;7.05;;;1.73;;
16272;SDS011;8244;50.044;9.006;2023-06-26T19:21:42;4.28;;;1.85;;
16272;SDS011;8244;50.044;9.006;2023-06-26T19:26:45;7.75;;;1.83;;
16272;SDS011;8244;50.044;9.006;2023-06-26T19:31:46;7.28;;;2.17;;
16272;SDS011;8244;50.044;9.006;2023-06-26T19:36:49;6.05;;;1.80;;
16272;SDS011;8244;50.044;9.006;2023-06-26T19:41:53;8.32;;;1.90;;
16272;SDS011;8244;50.044;9.006;2023-06-26T19:46:55;6.18;;;1.88;;
16272;SDS011;8244;50.044;9.006;2023-06-26T19:51:56;4.40;;;2.13;;
16272;SDS011;8244;50.044;9.006;2023-06-26T19:57:00;4.38;;;1.65;;
16272;SDS011;8244;50.044;9.006;2023-06-26T20:02:01;6.85;;;2.00;;
16272;SDS011;8244;50.044;9.006;2023-06-26T20:07:04;6.60;;;2.00;;
16272;SDS011;8244;50.044;9.006;2023-06-26T20:12:07;4.07;;;1.83;;
16272;SDS011;8244;50.044;9.006;2023-06-26T20:17:09;4.72;;;2.08;;
16272;SDS011;8244;50.044;9.006;2023-06-26T20:22:11;7.10;;;2.05;;
16272;SDS011;8244;50.044;9.006;2023-06-26T20:27:14;3.97;;;1.88;;
16272;SDS011;8244;50.044;9.006;2023-06-26T20:32:16;7.28;;;1.80;;
16272;SDS011;8244;50.044;9.006;2023-06-26T20:37:18;6.05;;;1.83;;
16272;SDS011;8244;50.044;9.006;2023-06-26T20:42:21;5.47;;;2.00;;
16272;SDS011;8244;50.044;9.006;2023-06-26T20:47:24;5.00;;;1.98;;
16272;SDS011;8244;50.044;9.006;2023-06-26T20:52:32;5.38;;;1.92;;
16272;SDS011;8244;50.044;9.006;2023-06-26T20:57:36;5.05;;;1.88;;
16272;SDS011;8244;50.044;9.006;2023-06-26T21:02:37;5.90;;;1.88;;
16272;SDS011;8244;50.044;9.006;2023-06-26T21:07:39;5.28;;;1.90;;
16272;SDS011;8244;50.044;9.006;2023-06-26T21:12:42;3.00;;;1.83;;
16272;SDS011;8244;50.044;9.006;2023-06-26T21:17:44;10.27;;;2.28;;
16272;SDS011;8244;50.044;9.006;2023-06-26T21:22:46;4.60;;;1.70;;
16272;SDS011;8244;50.044;9.006;2023-06-26T21:27:49;5.15;;;1.80;;
16272;SDS011;8244;50.044;9.006;2023-06-26T21:32:51;5.50;;;2.20;;
16272;SDS011;8244;50.044;9.006;2023-06-26T21:37:52;5.82;;;1.90;;
16272;SDS011;8244;50.044;9.006;2023-06-26T21:42:56;4.32;;;1.80;;
16272;SDS011;8244;50.044;9.006;2023-06-26T21:47:58;3.70;;;1.80;;
16272;SDS011;8244;50.044;9.006;2023-06-26T21:53:00;6.97;;;1.73;;
16272;SDS011;8244;50.044;9.006;2023-06-26T21:58:03;6.47;;;1.83;;
16272;SDS011;8244;50.044;9.006;2023-06-26T22:03:05;5.60;;;1.88;;
16272;SDS011;8244;50.044;9.006;2023-06-26T22:08:06;7.82;;;1.90;;
16272;SDS011;8244;50.044;9.006;2023-06-26T22:13:10;6.30;;;2.05;;
16272;SDS011;8244;50.044;9.006;2023-06-26T22:18:11;5.97;;;1.83;;
16272;SDS011;8244;50.044;9.006;2023-06-26T22:23:13;5.32;;;2.00;;
16272;SDS011;8244;50.044;9.006;2023-06-26T22:28:16;6.63;;;1.80;;
16272;SDS011;8244;50.044;9.006;2023-06-26T22:33:18;6.25;;;1.98;;
16272;SDS011;8244;50.044;9.006;2023-06-26T22:38:20;5.20;;;1.73;;
16272;SDS011;8244;50.044;9.006;2023-06-26T22:43:23;4.20;;;1.80;;
16272;SDS011;8244;50.044;9.006;2023-06-26T22:48:25;4.28;;;1.65;;
16272;SDS011;8244;50.044;9.006;2023-06-26T22:53:27;7.07;;;2.20;;
16272;SDS011;8244;50.044;9.006;2023-06-26T22:58:31;8.52;;;1.92;;
16272;SDS011;8244;50.044;9.006;2023-06-26T23:03:32;2.80;;;1.63;;
16272;SDS011;8244;50.044;9.006;2023-06-26T23:08:34;3.40;;;1.70;;
16272;SDS011;8244;50.044;9.006;2023-06-26T23:13:38;3.35;;;1.85;;
16272;SDS011;8244;50.044;9.006;2023-06-26T23:18:39;5.63;;;1.75;;
16272;SDS011;8244;50.044;9.006;2023-06-26T23:23:41;4.75;;;1.77;;
16272;SDS011;8244;50.044;9.006;2023-06-26T23:28:44;4.07;;;1.92;;
16272;SDS011;8244;50.044;9.006;2023-06-26T23:33:46;4.35;;;1.77;;
16272;SDS011;8244;50.044;9.006;2023-06-26T23:38:48;6.18;;;1.60;;
16272;SDS011;8244;50.044;9.006;2023-06-26T23:43:51;3.25;;;1.75;;
16272;SDS011;8244;50.044;9.006;2023-06-26T23:48:53;4.30;;;1.90;;
16272;SDS011;8244;50.044;9.006;2023-06-26T23:53:55;3.72;;;1.80;;
16272;SDS011;8244;50.044;9.006;2023-06-26T23:58:58;3.95;;;1.70;;
